Willington, Connecticut
Current Conditions -  °F | °C
As of 7:52 PM on Sunday 21 Dec 2014 (Local Time) from KIJD Reporting Station
Overcast Overcast  
Wind Chill: 29°   Ceiling: 1300
Heat Index: 33°   Visibility: 10mi
Dew Point: 30°   Wind: 5mph
Humidity: 89%   Direction: 360°N
Pressure: 30.34"   Gusts: NA
Location:  41.88°N, 72.27°W
Report Text: KIJD 220052Z AUTO 36004KT 10SM OVC013 01/M01 A3034 RMK AO2 SNB2359E29 SLP274 P0000 T00061011
Loading
Personal Weather Stations






























Interactive Weather Map New forecast layout! Learn more

10-Day Weather Forecast

Advertisements
Track Severe Weather on mobile